Time;durP1;ratioP1;P1;durP2;ratioP2;P2;SDS_P1;SDS_P2;PMS_P1;PMS_P2;Temp;Humidity;BMP_temperature;BMP_pressure;BME280_temperature;BME280_humidity;BME280_pressure;Samples;Min_cycle;Max_cycle;Signal;HPM_P1;HPM_P2
2023/05/06 00:02:20;;;;;;;;;;;;;;;15.34;68.28;92881.47;2055780;69;20046;-74
2023/05/06 00:04:46;;;;;;;;;;;;;;;15.39;68.89;92888.78;2055601;69;20070;-74
2023/05/06 00:07:11;;;;;;;;;;;;;;;15.24;68.62;92881.72;2055653;69;20085;-73
2023/05/06 00:09:37;;;;;;;;;;;;;;;15.17;69.17;92877.16;2055661;69;20398;-73
2023/05/06 00:12:04;;;;;;;;;;;;;;;15.07;70.40;92890.09;2055586;70;20448;-74
2023/05/06 00:14:29;;;;;;;;;;;;;;;15.02;69.66;92879.94;2055911;69;20154;-73
2023/05/06 00:16:55;;;;;;;;;;;;;;;15.08;68.39;92871.75;2055699;69;20181;-74
2023/05/06 00:19:20;;;;;;;;;;;;;;;15.00;69.41;92877.75;2068690;69;20066;-74
2023/05/06 00:21:46;;;;;;;;;;;;;;;14.92;69.17;92869.59;2055585;70;20070;-73
2023/05/06 00:24:11;;;;;;;;;;;;;;;14.85;69.63;92873.53;2055549;69;20046;-74
2023/05/06 00:26:37;;;;;;;;;;;;;;;14.78;69.89;92873.88;2055585;70;20519;-74
2023/05/06 00:29:02;;;;;;;;;;;;;;;14.74;69.94;92865.91;2055537;69;20050;-74
2023/05/06 00:31:28;;;;;;;;;;;;;;;14.85;69.07;92870.69;2068613;69;20080;-74
2023/05/06 00:33:53;;;;;;;;;;;;;;;14.59;70.19;92870.16;2068585;69;20474;-74
2023/05/06 00:36:19;;;;;;;;;;;;;;;14.58;70.23;92867.97;2068619;69;20046;-74
2023/05/06 00:38:44;;;;;;;;;;;;;;;14.56;70.45;92871.41;2055793;69;20108;-75
2023/05/06 00:41:10;;;;;;;;;;;;;;;14.28;70.55;92865.06;2055623;70;20046;-73
2023/05/06 00:43:35;;;;;;;;;;;;;;;13.96;73.14;92858.50;2068536;69;20147;-73
2023/05/06 00:46:01;;;;;;;;;;;;;;;14.06;72.58;92861.84;2055890;69;20050;-74
2023/05/06 00:48:27;;;;;;;;;;;;;;;14.20;72.60;92858.97;2055542;70;20062;-74
2023/05/06 00:50:52;;;;;;;;;;;;;;;14.26;70.76;92858.56;2055818;69;20053;-74
2023/05/06 00:53:18;;;;;;;;;;;;;;;14.15;71.44;92854.47;2055567;70;20477;-74
2023/05/06 00:55:44;;;;;;;;;;;;;;;14.27;70.99;92840.22;2055656;69;20149;-74
2023/05/06 00:58:09;;;;;;;;;;;;;;;14.32;70.48;92842.59;2055475;70;20108;-75
2023/05/06 01:00:35;;;;;;;;;;;;;;;14.38;69.63;92845.00;2055595;69;20054;-74
2023/05/06 01:03:00;;;;;;;;;;;;;;;14.42;69.03;92845.19;2068707;69;20054;-74
2023/05/06 01:05:29;;;;;;;;;;;;;;;14.22;70.93;92845.66;2055763;70;20066;-74
2023/05/06 01:08:05;;;;;;;;;;;;;;;13.99;71.17;92841.00;2065925;69;20137;-74
2023/05/06 01:10:39;;;;;;;;;;;;;;;14.06;70.35;92850.50;2055721;70;20054;-73
2023/05/06 01:13:05;;;;;;;;;;;;;;;14.21;69.76;92846.31;2055522;69;20432;-73
2023/05/06 01:15:44;;;;;;;;;;;;;;;14.09;70.63;92852.09;2068677;69;20532;-74
2023/05/06 01:18:12;;;;;;;;;;;;;;;14.07;71.73;92849.16;2055738;69;20436;-73
2023/05/06 01:20:40;;;;;;;;;;;;;;;14.05;71.66;92856.81;2055633;69;20094;-73
2023/05/06 01:23:08;;;;;;;;;;;;;;;14.30;69.36;92859.50;2055605;69;20070;-73
2023/05/06 01:25:34;;;;;;;;;;;;;;;14.13;70.83;92843.81;2068528;69;20046;-73
2023/05/06 01:27:59;;;;;;;;;;;;;;;14.03;71.07;92845.41;2065703;69;20138;-73
2023/05/06 01:30:29;;;;;;;;;;;;;;;14.06;72.14;92850.50;2055552;70;20050;-73
2023/05/06 01:32:54;;;;;;;;;;;;;;;14.14;71.23;92842.44;2068596;69;20085;-73
2023/05/06 01:35:23;;;;;;;;;;;;;;;14.27;69.86;92838.09;2068764;69;20193;-73
2023/05/06 01:38:08;;;;;;;;;;;;;;;14.06;71.50;92838.47;2055528;70;20050;-73
2023/05/06 01:40:34;;;;;;;;;;;;;;;14.08;71.48;92847.06;2068548;69;20058;-73
2023/05/06 01:43:03;;;;;;;;;;;;;;;14.19;70.81;92841.25;2055469;69;20058;-73
2023/05/06 01:45:30;;;;;;;;;;;;;;;14.23;70.81;92832.97;2055572;69;20054;-73
2023/05/06 01:47:58;;;;;;;;;;;;;;;14.20;71.45;92836.31;2068431;69;20509;-73
2023/05/06 01:50:24;;;;;;;;;;;;;;;14.30;70.53;92836.84;2068510;69;20190;-73
2023/05/06 01:53:00;;;;;;;;;;;;;;;14.26;71.34;92842.31;2068498;69;20043;-73
2023/05/06 01:55:26;;;;;;;;;;;;;;;14.28;70.50;92839.56;2068576;69;20073;-73
2023/05/06 01:57:53;;;;;;;;;;;;;;;14.35;70.02;92844.19;2068475;69;20118;-73
2023/05/06 02:00:18;;;;;;;;;;;;;;;14.13;71.96;92838.13;2055549;69;20054;-73
2023/05/06 02:02:44;;;;;;;;;;;;;;;14.22;70.48;92844.94;2055580;70;20057;-73
2023/05/06 02:05:09;;;;;;;;;;;;;;;14.10;71.97;92833.00;2068408;69;20547;-74
2023/05/06 02:07:39;;;;;;;;;;;;;;;14.06;72.12;92841.28;2068398;69;20075;-74
2023/05/06 02:10:05;;;;;;;;;;;;;;;14.30;68.64;92848.19;2068357;69;20178;-73
2023/05/06 02:12:31;;;;;;;;;;;;;;;14.29;70.00;92841.03;2068316;69;20050;-73
2023/05/06 02:14:57;;;;;;;;;;;;;;;14.14;70.87;92841.69;2068303;69;20113;-73
2023/05/06 02:17:22;;;;;;;;;;;;;;;14.13;71.44;92840.97;2068434;69;20054;-73
2023/05/06 02:19:48;;;;;;;;;;;;;;;14.15;71.27;92841.06;2068567;69;20416;-73
2023/05/06 02:22:13;;;;;;;;;;;;;;;13.95;71.67;92837.94;2068433;69;20051;-73
2023/05/06 02:24:39;;;;;;;;;;;;;;;13.95;70.98;92848.53;2065694;69;20166;-73
2023/05/06 02:27:05;;;;;;;;;;;;;;;14.02;71.31;92846.75;2055418;70;20424;-73
2023/05/06 02:29:30;;;;;;;;;;;;;;;14.06;71.57;92841.28;2065372;69;20051;-73
2023/05/06 02:31:56;;;;;;;;;;;;;;;14.09;71.31;92840.03;2065125;69;20073;-73
2023/05/06 02:34:21;;;;;;;;;;;;;;;14.10;71.17;92835.84;2065052;69;20104;-73
2023/05/06 02:36:46;;;;;;;;;;;;;;;14.27;70.07;92823.22;2065119;69;20050;-74
2023/05/06 02:39:14;;;;;;;;;;;;;;;14.16;70.49;92822.00;2065035;69;20409;-73
2023/05/06 02:41:39;;;;;;;;;;;;;;;14.12;71.62;92827.47;2051997;70;20117;-73
2023/05/06 02:44:05;;;;;;;;;;;;;;;13.97;72.59;92832.41;2051888;70;20056;-73
2023/05/06 02:46:30;;;;;;;;;;;;;;;14.04;71.34;92829.88;2064942;69;20058;-73
2023/05/06 02:48:56;;;;;;;;;;;;;;;13.56;74.04;92823.19;2064987;69;20070;-73
2023/05/06 02:51:22;;;;;;;;;;;;;;;13.45;74.29;92814.19;2065021;69;20109;-73
2023/05/06 02:53:47;;;;;;;;;;;;;;;13.34;75.58;92822.78;2065113;69;20086;-73
2023/05/06 02:56:13;;;;;;;;;;;;;;;13.80;73.35;92812.41;2052364;70;20417;-73
2023/05/06 02:58:38;;;;;;;;;;;;;;;13.84;73.67;92802.03;2065011;69;20562;-73
2023/05/06 03:01:03;;;;;;;;;;;;;;;13.98;72.39;92796.34;2052172;70;20058;-73
2023/05/06 03:03:29;;;;;;;;;;;;;;;13.97;72.13;92809.00;2052029;70;20094;-74
2023/05/06 03:05:54;;;;;;;;;;;;;;;13.89;72.72;92811.47;2052163;70;20055;-74
2023/05/06 03:08:20;;;;;;;;;;;;;;;13.94;72.37;92819.50;2052096;70;20051;-73
2023/05/06 03:10:45;;;;;;;;;;;;;;;13.44;75.72;92826.13;2052282;70;20086;-74
2023/05/06 03:13:11;;;;;;;;;;;;;;;13.31;75.94;92818.38;2059556;69;20054;-73
2023/05/06 03:15:37;;;;;;;;;;;;;;;13.61;74.73;92813.59;2065201;69;20084;-73
2023/05/06 03:18:02;;;;;;;;;;;;;;;13.86;72.97;92809.88;2052253;70;20125;-74
2023/05/06 03:20:28;;;;;;;;;;;;;;;13.91;73.28;92803.06;2065163;69;20388;-73
2023/05/06 03:22:55;;;;;;;;;;;;;;;13.92;72.83;92796.75;2065234;69;20055;-73
2023/05/06 03:25:21;;;;;;;;;;;;;;;14.10;71.94;92802.59;2062829;69;20051;-73
2023/05/06 03:27:47;;;;;;;;;;;;;;;14.07;71.47;92805.97;2065485;69;20508;-73
2023/05/06 03:30:19;;;;;;;;;;;;;;;13.96;72.56;92805.44;2065632;69;20051;-73
2023/05/06 03:32:47;;;;;;;;;;;;;;;13.92;73.04;92818.66;2065683;69;20079;-73
2023/05/06 03:35:17;;;;;;;;;;;;;;;13.96;72.62;92821.69;2065591;69;20047;-73
2023/05/06 03:37:46;;;;;;;;;;;;;;;14.01;72.67;92823.38;2065516;69;20533;-73
2023/05/06 03:40:12;;;;;;;;;;;;;;;13.96;72.72;92833.75;2065564;69;20039;-73
2023/05/06 03:42:37;;;;;;;;;;;;;;;14.10;71.85;92841.50;2062610;69;20065;-74
2023/05/06 03:45:03;;;;;;;;;;;;;;;14.07;72.49;92849.16;2065601;69;20082;-74
2023/05/06 03:47:31;;;;;;;;;;;;;;;13.76;74.02;92860.31;2065523;69;20050;-74
2023/05/06 03:49:57;;;;;;;;;;;;;;;13.93;72.75;92877.47;2065553;69;20077;-73
2023/05/06 03:52:22;;;;;;;;;;;;;;;14.04;72.55;92875.16;2065479;69;20058;-73
2023/05/06 03:54:48;;;;;;;;;;;;;;;13.98;72.68;92879.16;2052483;70;20047;-73
2023/05/06 03:57:13;;;;;;;;;;;;;;;14.02;72.75;92877.88;2065416;69;20069;-73
2023/05/06 03:59:39;;;;;;;;;;;;;;;13.66;74.11;92872.56;2065496;69;20469;-73
2023/05/06 04:02:05;;;;;;;;;;;;;;;13.68;74.42;92861.34;2065431;69;20149;-73
2023/05/06 04:04:33;;;;;;;;;;;;;;;13.90;73.68;92856.09;2065385;69;20594;-74
2023/05/06 04:06:59;;;;;;;;;;;;;;;14.07;72.17;92860.50;2065428;69;20083;-74
2023/05/06 04:09:25;;;;;;;;;;;;;;;14.08;73.14;92856.28;2065539;69;20501;-74
2023/05/06 04:11:51;;;;;;;;;;;;;;;14.10;73.23;92845.06;2065358;69;20428;-74
2023/05/06 04:14:17;;;;;;;;;;;;;;;14.07;74.08;92839.94;2065423;69;20424;-73
2023/05/06 04:16:42;;;;;;;;;;;;;;;14.16;73.00;92836.16;2052605;70;20146;-73
2023/05/06 04:19:09;;;;;;;;;;;;;;;14.17;73.20;92826.28;2052652;70;20058;-73
2023/05/06 04:21:35;;;;;;;;;;;;;;;13.83;73.38;92820.34;2065503;69;20262;-73
2023/05/06 04:24:05;;;;;;;;;;;;;;;13.48;76.71;92815.03;2065451;69;20085;-72
2023/05/06 04:26:35;;;;;;;;;;;;;;;13.69;76.05;92817.53;2065471;69;20057;-72
2023/05/06 04:29:01;;;;;;;;;;;;;;;13.88;76.18;92838.28;2065276;69;20054;-72
2023/05/06 04:31:28;;;;;;;;;;;;;;;13.93;76.16;92839.97;2065427;69;20520;-75
2023/05/06 04:33:55;;;;;;;;;;;;;;;13.76;76.51;92841.22;2065470;69;20061;-73
2023/05/06 04:36:23;;;;;;;;;;;;;;;12.93;79.94;92851.69;2052402;70;20051;-73
2023/05/06 04:39:09;;;;;;;;;;;;;;;13.40;78.36;92857.75;2065447;69;20047;-73
2023/05/06 04:41:36;;;;;;;;;;;;;;;13.67;76.97;92857.03;2065409;69;20096;-73
2023/05/06 04:44:02;;;;;;;;;;;;;;;13.83;75.79;92859.97;2065325;69;20050;-73
2023/05/06 04:46:28;;;;;;;;;;;;;;;13.99;75.25;92860.81;2052495;70;20116;-73
2023/05/06 04:48:55;;;;;;;;;;;;;;;13.96;75.57;92867.72;2052483;70;20062;-73
2023/05/06 04:51:21;;;;;;;;;;;;;;;14.02;75.18;92869.38;2065404;69;20089;-73
2023/05/06 04:53:47;;;;;;;;;;;;;;;14.10;74.72;92872.63;2062419;69;20179;-74
2023/05/06 04:56:13;;;;;;;;;;;;;;;14.18;75.03;92875.88;2065296;69;20054;-73
2023/05/06 04:58:39;;;;;;;;;;;;;;;13.78;76.90;92886.59;2065283;69;20481;-73
2023/05/06 05:01:06;;;;;;;;;;;;;;;14.10;75.04;92881.84;2065301;69;20415;-73
2023/05/06 05:03:32;;;;;;;;;;;;;;;14.18;74.14;92878.72;2065150;69;20142;-74
2023/05/06 05:05:58;;;;;;;;;;;;;;;14.08;74.15;92875.38;2065188;69;20478;-73
2023/05/06 05:08:25;;;;;;;;;;;;;;;13.98;75.06;92873.50;2065266;69;20050;-74
2023/05/06 05:10:50;;;;;;;;;;;;;;;14.13;74.79;92877.78;2065365;69;20058;-74
2023/05/06 05:13:20;;;;;;;;;;;;;;;14.15;75.39;92877.88;2065149;69;20062;-73
2023/05/06 05:15:47;;;;;;;;;;;;;;;14.20;74.72;92885.22;2065234;69;20139;-73
2023/05/06 05:18:14;;;;;;;;;;;;;;;14.27;73.97;92871.34;2065190;69;20086;-73
2023/05/06 05:20:40;;;;;;;;;;;;;;;14.33;73.38;92871.66;2065323;69;20146;-73
2023/05/06 05:23:08;;;;;;;;;;;;;;;14.37;74.58;92875.41;2065090;69;20120;-73
2023/05/06 05:25:34;;;;;;;;;;;;;;;14.33;74.06;92875.22;2065108;69;20397;-73
2023/05/06 05:27:59;;;;;;;;;;;;;;;14.31;73.72;92872.28;2065090;69;20047;-74
2023/05/06 05:30:25;;;;;;;;;;;;;;;14.02;75.42;92877.88;2065163;69;20093;-74
2023/05/06 05:32:51;;;;;;;;;;;;;;;13.95;75.85;92874.03;2065211;69;20454;-74
2023/05/06 05:35:17;;;;;;;;;;;;;;;14.01;75.59;92882.06;2065133;69;20100;-74
2023/05/06 05:37:44;;;;;;;;;;;;;;;14.02;74.64;92875.03;2065072;69;20055;-74
2023/05/06 05:40:10;;;;;;;;;;;;;;;14.19;75.21;92878.06;2052114;70;20055;-74
2023/05/06 05:42:38;;;;;;;;;;;;;;;14.14;74.83;92879.22;2064960;69;20120;-74
2023/05/06 05:45:09;;;;;;;;;;;;;;;14.13;75.26;92877.78;2065037;69;20047;-74
2023/05/06 05:47:35;;;;;;;;;;;;;;;14.35;74.43;92874.59;2065062;69;20063;-74
2023/05/06 05:50:01;;;;;;;;;;;;;;;14.40;74.02;92868.50;2052276;70;20150;-74
2023/05/06 05:52:28;;;;;;;;;;;;;;;14.46;73.68;92865.22;2065162;69;20116;-74
2023/05/06 05:54:53;;;;;;;;;;;;;;;14.51;74.51;92863.34;2065075;69;20058;-74
2023/05/06 05:57:19;;;;;;;;;;;;;;;14.60;74.24;92863.09;2065081;69;20071;-74
2023/05/06 05:59:45;;;;;;;;;;;;;;;14.70;74.40;92863.59;2065086;69;20099;-74
2023/05/06 06:02:10;;;;;;;;;;;;;;;14.74;74.83;92860.22;2052145;70;20466;-74
2023/05/06 06:04:35;;;;;;;;;;;;;;;14.86;73.81;92866.47;2052062;70;20523;-75
2023/05/06 06:07:02;;;;;;;;;;;;;;;14.88;73.72;92860.91;2052282;70;20096;-74
2023/05/06 06:09:31;;;;;;;;;;;;;;;14.90;72.49;92863.13;2065024;69;20061;-74
2023/05/06 06:11:59;;;;;;;;;;;;;;;14.80;72.81;92857.69;2064932;69;20123;-74
2023/05/06 06:14:25;;;;;;;;;;;;;;;15.16;72.44;92866.44;2065049;69;20047;-74
2023/05/06 06:16:51;;;;;;;;;;;;;;;15.25;73.30;92856.94;2065089;69;20058;-74
2023/05/06 06:19:17;;;;;;;;;;;;;;;15.52;72.64;92853.91;2052069;70;20112;-74
2023/05/06 06:21:43;;;;;;;;;;;;;;;15.60;73.43;92862.06;2065111;69;20437;-74
2023/05/06 06:24:08;;;;;;;;;;;;;;;15.70;71.85;92862.53;2065085;69;20059;-74
2023/05/06 06:26:34;;;;;;;;;;;;;;;15.85;72.80;92860.34;2052105;70;20090;-74
2023/05/06 06:29:00;;;;;;;;;;;;;;;15.91;71.50;92863.44;2064952;69;20096;-75
2023/05/06 06:31:25;;;;;;;;;;;;;;;15.95;71.59;92867.19;2065026;69;20090;-73
2023/05/06 06:33:50;;;;;;;;;;;;;;;15.88;71.85;92854.09;2065079;69;20054;-73
2023/05/06 06:36:16;;;;;;;;;;;;;;;15.57;71.43;92848.44;2062183;69;20098;-73
2023/05/06 06:38:42;;;;;;;;;;;;;;;15.75;71.55;92852.84;2064960;69;20050;-73
2023/05/06 06:41:08;;;;;;;;;;;;;;;15.64;71.51;92842.41;2064965;69;20054;-73
2023/05/06 06:43:33;;;;;;;;;;;;;;;15.89;66.55;92852.00;2052044;70;20142;-74
2023/05/06 06:46:00;;;;;;;;;;;;;;;16.04;69.56;92851.25;2065143;69;20201;-74
2023/05/06 06:48:26;;;;;;;;;;;;;;;16.00;69.19;92860.31;2052029;70;20170;-74
2023/05/06 06:50:51;;;;;;;;;;;;;;;15.84;70.28;92848.25;2051995;70;20050;-75
2023/05/06 06:53:17;;;;;;;;;;;;;;;16.06;67.50;92859.84;2051964;70;20171;-74
2023/05/06 06:55:43;;;;;;;;;;;;;;;15.78;70.33;92856.50;2052187;70;20454;-75
2023/05/06 06:58:09;;;;;;;;;;;;;;;15.46;73.84;92855.75;2051758;70;20046;-75
2023/05/06 07:00:34;;;;;;;;;;;;;;;15.93;71.71;92852.19;2052061;70;20508;-76
2023/05/06 07:02:59;;;;;;;;;;;;;;;16.20;69.94;92848.34;2052285;69;20205;-75
2023/05/06 07:05:25;;;;;;;;;;;;;;;16.36;69.09;92848.31;2052003;69;20055;-75
2023/05/06 07:07:51;;;;;;;;;;;;;;;16.53;70.92;92848.31;2051978;70;20051;-74
2023/05/06 07:10:17;;;;;;;;;;;;;;;16.70;69.49;92843.31;2052100;70;20069;-75
2023/05/06 07:12:42;;;;;;;;;;;;;;;17.04;71.01;92846.81;2051956;70;20089;-74
2023/05/06 07:15:08;;;;;;;;;;;;;;;17.41;70.23;92834.75;2065021;69;20082;-74
2023/05/06 07:17:33;;;;;;;;;;;;;;;17.13;66.34;92836.50;2052079;70;20047;-73
2023/05/06 07:19:59;;;;;;;;;;;;;;;17.63;65.16;92831.25;2051992;70;20046;-73
2023/05/06 07:22:26;;;;;;;;;;;;;;;17.70;62.59;92822.28;2051976;70;20146;-75
2023/05/06 07:24:52;;;;;;;;;;;;;;;18.45;61.02;92827.03;2052066;70;20053;-76
2023/05/06 07:27:18;;;;;;;;;;;;;;;18.61;59.93;92826.88;2052243;70;20062;-76
2023/05/06 07:29:43;;;;;;;;;;;;;;;18.69;59.17;92824.31;2051941;70;20054;-76
2023/05/06 07:32:09;;;;;;;;;;;;;;;19.06;57.73;92831.19;2052004;70;20116;-76
2023/05/06 07:34:35;;;;;;;;;;;;;;;18.94;57.24;92839.38;2051897;70;20115;-74
2023/05/06 07:37:00;;;;;;;;;;;;;;;18.66;57.57;92837.00;2051890;69;20047;-77
2023/05/06 07:39:26;;;;;;;;;;;;;;;18.84;56.80;92831.22;2051980;70;20058;-75
2023/05/06 07:41:51;;;;;;;;;;;;;;;19.21;55.96;92832.38;2064762;69;20444;-75
2023/05/06 07:44:17;;;;;;;;;;;;;;;19.27;58.97;92835.41;2051967;70;20078;-77
2023/05/06 07:46:42;;;;;;;;;;;;;;;19.40;60.21;92845.78;2064984;69;20181;-74
2023/05/06 07:49:08;;;;;;;;;;;;;;;19.47;59.73;92838.13;2052220;70;20142;-74
2023/05/06 07:51:34;;;;;;;;;;;;;;;19.59;61.21;92841.34;2051917;70;20047;-75
2023/05/06 07:54:00;;;;;;;;;;;;;;;19.70;59.81;92848.09;2051844;70;20047;-73
2023/05/06 07:56:25;;;;;;;;;;;;;;;19.66;59.94;92848.75;2051828;70;20047;-78
2023/05/06 07:58:52;;;;;;;;;;;;;;;19.83;59.91;92854.91;2051976;70;20466;-76
2023/05/06 08:01:19;;;;;;;;;;;;;;;19.35;57.18;92858.47;2064796;69;20142;-77
2023/05/06 08:03:45;;;;;;;;;;;;;;;19.23;57.22;92860.94;2064807;69;20115;-77
2023/05/06 08:06:10;;;;;;;;;;;;;;;19.12;58.64;92871.31;2052019;70;20043;-77
2023/05/06 08:08:36;;;;;;;;;;;;;;;19.26;58.53;92863.22;2052048;70;20050;-80
2023/05/06 08:11:02;;;;;;;;;;;;;;;19.03;59.15;92875.31;2052492;70;20091;-77
2023/05/06 08:13:27;;;;;;;;;;;;;;;19.15;58.33;92872.09;2065261;69;20161;-76
2023/05/06 08:15:54;;;;;;;;;;;;;;;18.50;59.58;92885.66;2052467;70;20054;-75
2023/05/06 08:18:20;;;;;;;;;;;;;;;18.21;60.36;92881.09;2052802;69;20047;-76
2023/05/06 08:20:45;;;;;;;;;;;;;;;18.14;59.86;92887.22;2052436;70;20057;-75
2023/05/06 08:23:11;;;;;;;;;;;;;;;18.31;58.57;92885.69;2065370;69;20437;-74
2023/05/06 08:25:36;;;;;;;;;;;;;;;18.48;57.62;92896.28;2065330;69;20553;-74
2023/05/06 08:28:02;;;;;;;;;;;;;;;18.09;59.62;92911.25;2052519;70;20050;-76
2023/05/06 08:30:27;;;;;;;;;;;;;;;17.51;62.86;92909.13;2052411;70;20071;-74
2023/05/06 08:32:53;;;;;;;;;;;;;;;17.89;62.18;92911.25;2052420;70;20142;-74
2023/05/06 08:35:19;;;;;;;;;;;;;;;17.72;62.80;92912.72;2052331;70;20299;-77
2023/05/06 08:37:44;;;;;;;;;;;;;;;17.36;64.90;92909.22;2052293;69;20059;-76
2023/05/06 08:40:19;;;;;;;;;;;;;;;17.49;64.82;92911.16;2052472;70;20054;-75
2023/05/06 08:42:47;;;;;;;;;;;;;;;17.85;63.57;92911.09;2065249;69;20047;-75
2023/05/06 08:45:13;;;;;;;;;;;;;;;17.76;65.06;92901.53;2065349;69;20061;-74
2023/05/06 08:47:40;;;;;;;;;;;;;;;17.94;65.28;92898.63;2052418;70;20061;-73
2023/05/06 08:50:06;;;;;;;;;;;;;;;18.09;64.07;92897.75;2052558;69;20107;-75
2023/05/06 08:52:32;;;;;;;;;;;;;;;17.99;64.88;92888.84;2052627;70;20138;-75
2023/05/06 08:55:00;;;;;;;;;;;;;;;18.10;65.75;92884.22;2052382;70;20447;-74
2023/05/06 08:57:28;;;;;;;;;;;;;;;18.35;65.35;92875.16;2052248;70;20196;-74
2023/05/06 08:59:54;;;;;;;;;;;;;;;18.47;64.56;92872.72;2065324;69;20050;-74
2023/05/06 09:02:20;;;;;;;;;;;;;;;18.60;63.86;92873.13;2052265;70;20043;-74
2023/05/06 09:04:46;;;;;;;;;;;;;;;18.41;63.59;92878.22;2052220;70;20493;-73
2023/05/06 09:07:11;;;;;;;;;;;;;;;16.85;69.21;92873.78;2052536;70;20054;-74
2023/05/06 09:09:37;;;;;;;;;;;;;;;16.79;68.79;92870.00;2052265;70;20139;-74
2023/05/06 09:12:02;;;;;;;;;;;;;;;17.28;66.43;92875.50;2052116;70;20489;-74
2023/05/06 09:14:29;;;;;;;;;;;;;;;17.93;64.74;92868.69;2065166;69;20050;-74
2023/05/06 09:16:55;;;;;;;;;;;;;;;18.27;61.61;92869.91;2052238;70;20062;-74
2023/05/06 09:19:21;;;;;;;;;;;;;;;18.28;62.10;92874.22;2052326;70;20492;-73
2023/05/06 09:21:48;;;;;;;;;;;;;;;18.49;62.41;92869.94;2052117;70;20054;-74
2023/05/06 09:24:15;;;;;;;;;;;;;;;18.28;61.71;92870.66;2052212;70;20058;-75
2023/05/06 09:26:42;;;;;;;;;;;;;;;18.47;62.02;92867.03;2052251;69;20142;-74
2023/05/06 09:29:08;;;;;;;;;;;;;;;18.20;61.11;92871.09;2052331;70;20474;-74
2023/05/06 09:31:39;;;;;;;;;;;;;;;18.06;63.15;92870.59;2065162;69;20059;-74
2023/05/06 09:34:06;;;;;;;;;;;;;;;17.29;63.06;92871.25;2062478;69;20054;-74
2023/05/06 09:36:31;;;;;;;;;;;;;;;16.85;65.97;92873.06;2052571;70;20050;-75
2023/05/06 09:38:57;;;;;;;;;;;;;;;18.18;61.87;92867.44;2065121;69;20063;-75
2023/05/06 09:41:26;;;;;;;;;;;;;;;18.86;61.69;92864.75;2052176;70;20047;-73
2023/05/06 09:43:53;;;;;;;;;;;;;;;19.13;59.86;92861.38;2052121;70;20062;-74
2023/05/06 09:46:20;;;;;;;;;;;;;;;19.03;59.04;92861.78;2052119;70;20489;-74
2023/05/06 09:48:45;;;;;;;;;;;;;;;18.96;58.75;92867.94;2052224;70;20417;-74
2023/05/06 09:51:11;;;;;;;;;;;;;;;18.85;57.24;92860.47;2065009;69;20469;-74
2023/05/06 09:53:37;;;;;;;;;;;;;;;19.21;56.23;92864.47;2052323;70;20217;-75
2023/05/06 09:56:04;;;;;;;;;;;;;;;19.66;56.14;92874.44;2052191;70;20594;-74
2023/05/06 09:58:31;;;;;;;;;;;;;;;19.45;55.74;92860.91;2052233;70;20050;-74
2023/05/06 10:00:56;;;;;;;;;;;;;;;18.92;56.27;92870.66;2052318;70;20063;-75
2023/05/06 10:03:22;;;;;;;;;;;;;;;19.00;54.96;92859.50;2065171;69;20421;-74
2023/05/06 10:05:48;;;;;;;;;;;;;;;19.01;56.69;92856.00;2052211;70;20359;-76
2023/05/06 10:08:23;;;;;;;;;;;;;;;19.84;55.23;92862.06;2052464;70;20054;-76
2023/05/06 10:10:49;;;;;;;;;;;;;;;20.59;53.15;92849.16;2052150;70;20054;-77
2023/05/06 10:13:16;;;;;;;;;;;;;;;20.17;53.34;92855.16;2051970;70;20486;-77
2023/05/06 10:15:48;;;;;;;;;;;;;;;20.89;51.95;92846.34;2052157;70;20062;-75
2023/05/06 10:18:15;;;;;;;;;;;;;;;21.05;51.35;92844.59;2052097;70;20051;-76
2023/05/06 10:20:41;;;;;;;;;;;;;;;20.90;50.78;92845.66;2052112;69;20077;-76
2023/05/06 10:23:12;;;;;;;;;;;;;;;20.67;51.17;92837.94;2052233;70;20051;-76
2023/05/06 10:25:44;;;;;;;;;;;;;;;20.69;50.88;92838.69;2052150;70;20043;-77
2023/05/06 10:28:11;;;;;;;;;;;;;;;20.40;51.23;92845.06;2052056;70;20047;-77
2023/05/06 10:30:38;;;;;;;;;;;;;;;20.52;51.96;92831.84;2064990;69;20081;-76
2023/05/06 10:33:05;;;;;;;;;;;;;;;20.57;51.30;92838.38;2052104;70;20455;-76
2023/05/06 10:35:31;;;;;;;;;;;;;;;20.64;50.58;92837.16;2062334;69;20062;-76
2023/05/06 10:37:58;;;;;;;;;;;;;;;20.75;51.01;92841.72;2065088;69;20050;-75
2023/05/06 10:40:24;;;;;;;;;;;;;;;20.87;50.26;92838.44;2052212;70;20112;-76
2023/05/06 10:42:50;;;;;;;;;;;;;;;20.74;50.55;92839.53;2064925;69;20063;-76
2023/05/06 10:45:15;;;;;;;;;;;;;;;21.05;50.88;92833.16;2052169;70;20046;-76
2023/05/06 10:47:53;;;;;;;;;;;;;;;20.68;50.73;92837.25;2065076;69;20047;-76
2023/05/06 10:50:20;;;;;;;;;;;;;;;21.42;49.26;92830.44;2052099;70;20055;-76
2023/05/06 10:52:47;;;;;;;;;;;;;;;21.90;48.86;92830.78;2064992;69;20059;-75
2023/05/06 10:55:30;;;;;;;;;;;;;;;22.89;47.14;92822.63;2065041;69;20123;-74
2023/05/06 10:58:00;;;;;;;;;;;;;;;23.32;47.16;92817.56;2064315;69;20488;-75
2023/05/06 11:00:29;;;;;;;;;;;;;;;23.62;45.25;92825.19;2052160;69;20444;-74
2023/05/06 11:02:56;;;;;;;;;;;;;;;25.95;40.99;92822.53;2052088;70;20047;-75
2023/05/06 11:05:22;;;;;;;;;;;;;;;27.18;41.04;92823.66;2052107;69;20413;-75
2023/05/06 11:07:51;;;;;;;;;;;;;;;29.90;35.32;92821.06;2065080;69;20074;-77
2023/05/06 11:10:30;;;;;;;;;;;;;;;27.80;35.55;92814.22;2065040;69;20068;-75
2023/05/06 11:12:56;;;;;;;;;;;;;;;28.10;34.45;92812.72;2051938;70;20440;-75
2023/05/06 11:15:36;;;;;;;;;;;;;;;28.40;35.65;92802.50;2051983;70;20149;-76
2023/05/06 11:18:36;;;;;;;;;;;;;;;34.87;29.10;92805.00;2064975;69;20367;-75
2023/05/06 11:21:06;;;;;;;;;;;;;;;37.27;24.44;92810.16;2041273;70;20064;-76
2023/05/06 11:23:53;;;;;;;;;;;;;;;30.99;29.26;92797.28;2041508;70;20165;-75
2023/05/06 11:26:23;;;;;;;;;;;;;;;29.80;32.53;92783.44;2040257;70;20066;-77
2023/05/06 11:28:51;;;;;;;;;;;;;;;34.27;27.61;92787.69;2038490;70;20496;-75
2023/05/06 11:31:16;;;;;;;;;;;;;;;38.20;23.59;92807.19;2039998;69;20434;-75
2023/05/06 11:33:45;;;;;;;;;;;;;;;41.04;19.79;92803.31;2041943;70;20063;-76
2023/05/06 11:36:16;;;;;;;;;;;;;;;39.93;19.47;92798.66;2044554;70;20057;-76
2023/05/06 11:38:43;;;;;;;;;;;;;;;43.00;18.42;92809.91;2044700;70;20052;-75
2023/05/06 11:41:10;;;;;;;;;;;;;;;41.06;19.35;92795.06;2044511;70;20051;-74
2023/05/06 11:43:36;;;;;;;;;;;;;;;43.96;18.18;92792.75;2044712;70;20058;-79
2023/05/06 11:46:02;;;;;;;;;;;;;;;43.32;17.98;92787.16;2039703;70;20190;-77
2023/05/06 11:48:27;;;;;;;;;;;;;;;44.13;16.73;92783.50;2045044;70;20166;-78
2023/05/06 11:50:53;;;;;;;;;;;;;;;40.16;18.60;92774.69;2044966;70;20066;-79
2023/05/06 11:53:20;;;;;;;;;;;;;;;42.97;17.82;92784.91;2042394;70;20506;-77
2023/05/06 11:55:46;;;;;;;;;;;;;;;39.05;18.69;92767.47;2044062;70;20185;-75
2023/05/06 11:58:15;;;;;;;;;;;;;;;40.23;17.47;92766.94;2066792;69;20166;-79
2023/05/06 12:00:51;;;;;;;;;;;;;;;43.19;16.59;92765.78;2070668;69;20042;-76
2023/05/06 12:03:17;;;;;;;;;;;;;;;40.13;18.05;92760.03;2057718;69;20046;-77
2023/05/06 12:05:43;;;;;;;;;;;;;;;42.02;17.15;92762.47;2055851;70;20065;-77
2023/05/06 12:08:10;;;;;;;;;;;;;;;37.29;20.39;92747.72;2056337;69;20043;-81
2023/05/06 12:10:35;;;;;;;;;;;;;;;35.41;22.96;92742.66;2056435;69;20077;-77
2023/05/06 12:13:02;;;;;;;;;;;;;;;37.21;21.01;92754.63;2068746;69;20449;-74
2023/05/06 12:15:27;;;;;;;;;;;;;;;35.04;22.51;92735.03;2055672;70;20153;-76
2023/05/06 12:17:53;;;;;;;;;;;;;;;34.22;23.27;92741.81;2055687;70;20089;-76
2023/05/06 12:20:20;;;;;;;;;;;;;;;39.78;19.51;92737.47;2068734;69;20482;-76
2023/05/06 12:23:03;;;;;;;;;;;;;;;33.90;22.77;92726.59;2055648;70;20437;-78
2023/05/06 12:25:30;;;;;;;;;;;;;;;33.23;24.38;92722.47;2055610;70;20067;-77
2023/05/06 12:27:58;;;;;;;;;;;;;;;32.01;25.53;92717.78;2068583;69;20479;-76
2023/05/06 12:30:27;;;;;;;;;;;;;;;31.24;26.12;92722.75;2055881;69;20058;-76
2023/05/06 12:32:57;;;;;;;;;;;;;;;30.52;26.89;92723.09;2069241;69;20149;-76
2023/05/06 12:35:23;;;;;;;;;;;;;;;30.58;27.85;92719.38;2070131;69;20146;-76
2023/05/06 12:37:49;;;;;;;;;;;;;;;30.81;28.45;92714.00;2056227;69;20046;-73
2023/05/06 12:40:17;;;;;;;;;;;;;;;30.12;28.47;92704.00;2057531;70;20111;-77
2023/05/06 12:42:42;;;;;;;;;;;;;;;28.74;30.28;92688.66;2072794;69;20487;-76
2023/05/06 12:45:14;;;;;;;;;;;;;;;29.59;30.03;92696.59;2072739;69;20085;-75
2023/05/06 12:47:50;;;;;;;;;;;;;;;35.15;24.58;92709.13;2070783;69;20054;-76